Time;durP1;ratioP1;P1;durP2;ratioP2;P2;SDS_P1;SDS_P2;PMS_P1;PMS_P2;Temp;Humidity;BMP_temperature;BMP_pressure;BME280_temperature;BME280_humidity;BME280_pressure;Samples;Min_cycle;Max_cycle;Signal;HPM_P1;HPM_P2
2023/12/29 00:01:54;;;;;;;1.83;1.70;;;3.80;99.90;;;;;;5019555;28;20552;-77
2023/12/29 00:04:22;;;;;;;4.67;2.50;;;3.80;99.90;;;;;;5037143;28;20573;-75
2023/12/29 00:06:49;;;;;;;2.57;1.67;;;3.80;99.90;;;;;;5000391;28;21093;-75
2023/12/29 00:09:16;;;;;;;2.10;1.17;;;3.80;99.90;;;;;;5004276;28;20462;-79
2023/12/29 00:11:43;;;;;;;1.73;1.30;;;3.90;99.90;;;;;;5005493;28;20458;-76
2023/12/29 00:14:10;;;;;;;1.30;0.93;;;3.90;99.90;;;;;;5004479;28;21172;-74
2023/12/29 00:16:37;;;;;;;1.50;1.27;;;4.10;99.90;;;;;;5001152;28;20536;-75
2023/12/29 00:19:04;;;;;;;1.80;1.33;;;4.20;99.90;;;;;;5004974;28;20446;-77
2023/12/29 00:21:33;;;;;;;1.67;1.20;;;4.20;99.90;;;;;;5004857;28;20533;-76
2023/12/29 00:24:00;;;;;;;1.20;1.10;;;4.20;99.90;;;;;;5012857;28;20943;-75
2023/12/29 00:26:27;;;;;;;2.77;1.17;;;4.20;99.90;;;;;;5007029;28;20455;-74
2023/12/29 00:28:55;;;;;;;2.47;1.70;;;4.20;99.90;;;;;;5014024;28;20824;-75
2023/12/29 00:31:22;;;;;;;2.73;1.37;;;4.20;99.90;;;;;;5007679;28;20455;-75
2023/12/29 00:33:51;;;;;;;1.50;1.20;;;4.10;99.90;;;;;;5004661;28;20505;-75
2023/12/29 00:36:19;;;;;;;1.60;1.10;;;4.10;99.90;;;;;;5004304;28;20534;-74
2023/12/29 00:38:48;;;;;;;1.70;1.37;;;4.10;99.90;;;;;;5003501;28;20471;-76
2023/12/29 00:41:15;;;;;;;2.20;1.30;;;4.20;99.90;;;;;;5005457;28;20497;-78
2023/12/29 00:43:42;;;;;;;1.17;1.00;;;4.30;99.90;;;;;;5004924;28;20443;-73
2023/12/29 00:46:09;;;;;;;2.20;1.60;;;4.10;99.90;;;;;;4999163;28;20514;-74
2023/12/29 00:48:36;;;;;;;2.70;1.90;;;4.00;99.90;;;;;;5006154;28;21452;-75
2023/12/29 00:51:05;;;;;;;2.00;1.40;;;4.00;99.90;;;;;;5003198;28;20474;-75
2023/12/29 00:53:35;;;;;;;3.00;1.70;;;3.90;99.90;;;;;;5001985;28;20493;-74
2023/12/29 00:56:04;;;;;;;2.60;1.77;;;3.90;99.90;;;;;;5004460;28;20458;-77
2023/12/29 00:58:30;;;;;;;2.70;1.50;;;3.90;99.90;;;;;;5006677;28;20470;-75
2023/12/29 01:00:57;;;;;;;1.60;1.00;;;4.10;99.90;;;;;;5002840;28;20508;-74
2023/12/29 01:03:24;;;;;;;0.87;0.80;;;4.20;99.90;;;;;;5002045;28;21028;-74
2023/12/29 01:05:51;;;;;;;1.83;1.20;;;4.40;99.90;;;;;;5014283;28;20515;-77
2023/12/29 01:08:18;;;;;;;0.80;0.80;;;4.60;99.90;;;;;;5005225;28;20435;-75
2023/12/29 01:10:45;;;;;;;4.77;1.30;;;4.60;99.90;;;;;;5003728;28;20892;-74
2023/12/29 01:13:14;;;;;;;1.47;0.77;;;4.70;99.90;;;;;;5003763;28;20972;-74
2023/12/29 01:15:44;;;;;;;1.00;0.90;;;4.80;99.90;;;;;;5004648;28;20483;-74
2023/12/29 01:18:11;;;;;;;1.40;1.30;;;4.80;99.90;;;;;;5002643;28;20455;-74
2023/12/29 01:20:39;;;;;;;5.60;1.37;;;4.80;99.90;;;;;;5009337;28;20519;-77
2023/12/29 01:23:05;;;;;;;1.10;1.00;;;4.70;99.90;;;;;;5008665;28;20463;-74
2023/12/29 01:25:32;;;;;;;1.20;1.00;;;4.70;99.90;;;;;;5003457;28;20846;-78
2023/12/29 01:27:59;;;;;;;2.03;0.97;;;4.60;99.90;;;;;;5008438;28;20454;-74
2023/12/29 01:30:28;;;;;;;1.70;1.03;;;4.60;99.90;;;;;;5004320;28;20443;-73
2023/12/29 01:32:55;;;;;;;1.47;0.73;;;4.60;99.90;;;;;;5002052;28;20462;-77
2023/12/29 01:35:22;;;;;;;1.17;0.80;;;4.60;99.90;;;;;;5008562;28;21013;-74
2023/12/29 01:37:48;;;;;;;2.67;1.30;;;4.70;99.90;;;;;;5022867;28;20447;-77
2023/12/29 01:40:17;;;;;;;1.13;1.03;;;4.60;99.90;;;;;;5008934;28;20511;-74
2023/12/29 01:42:44;;;;;;;2.10;1.47;;;4.70;99.90;;;;;;4995484;28;20454;-76
2023/12/29 01:45:22;;;;;;;1.33;1.00;;;4.60;99.90;;;;;;5002378;28;20878;-74
2023/12/29 01:47:52;;;;;;;2.67;1.10;;;4.60;99.90;;;;;;5003171;28;21027;-74
2023/12/29 01:50:20;;;;;;;2.47;1.27;;;4.60;99.90;;;;;;5005483;28;20448;-76
2023/12/29 01:52:49;;;;;;;1.40;1.10;;;4.60;99.90;;;;;;5006373;28;20459;-77
2023/12/29 01:55:19;;;;;;;1.30;1.20;;;4.60;99.90;;;;;;5016187;28;20469;-75
2023/12/29 01:57:47;;;;;;;1.70;0.90;;;4.60;99.90;;;;;;5003675;28;20534;-74
2023/12/29 02:00:16;;;;;;;1.73;1.03;;;4.60;99.90;;;;;;5004658;28;20555;-73
2023/12/29 02:02:44;;;;;;;2.00;1.07;;;4.60;99.90;;;;;;4997527;28;20459;-75
2023/12/29 02:05:14;;;;;;;2.20;1.37;;;4.60;99.90;;;;;;5003544;28;20543;-77
2023/12/29 02:07:42;;;;;;;1.50;1.17;;;4.70;99.90;;;;;;5005267;28;20463;-72
2023/12/29 02:10:09;;;;;;;2.20;1.50;;;4.70;99.90;;;;;;5003249;28;20531;-74
2023/12/29 02:12:37;;;;;;;2.17;1.97;;;4.70;99.90;;;;;;5002574;28;20479;-73
2023/12/29 02:15:05;;;;;;;2.60;1.60;;;4.60;99.90;;;;;;5002732;28;20454;-74
2023/12/29 02:17:39;;;;;;;1.87;1.67;;;4.50;99.90;;;;;;5003145;28;20470;-73
2023/12/29 02:20:08;;;;;;;2.10;1.57;;;4.40;99.90;;;;;;5015659;28;20996;-74
2023/12/29 02:22:36;;;;;;;2.30;1.30;;;4.40;99.90;;;;;;5010785;28;20466;-74
2023/12/29 02:25:07;;;;;;;2.83;1.30;;;4.50;99.90;;;;;;5011926;28;20992;-76
2023/12/29 02:27:42;;;;;;;3.20;1.70;;;4.50;99.90;;;;;;4993985;28;20554;-75
2023/12/29 02:30:16;;;;;;;1.43;1.27;;;4.40;99.90;;;;;;5004644;28;20443;-77
2023/12/29 02:32:46;;;;;;;1.53;1.10;;;4.40;99.90;;;;;;5007655;28;21093;-75
2023/12/29 02:35:15;;;;;;;2.50;1.30;;;4.40;99.90;;;;;;5008760;28;21020;-74
2023/12/29 02:37:43;;;;;;;1.73;1.03;;;4.40;99.90;;;;;;5042431;28;20504;-75
2023/12/29 02:40:12;;;;;;;2.70;0.90;;;4.50;99.90;;;;;;5045070;28;20465;-76
2023/12/29 02:42:39;;;;;;;0.87;0.87;;;4.40;99.90;;;;;;5008843;28;20456;-73
2023/12/29 02:45:07;;;;;;;1.90;1.00;;;4.50;99.90;;;;;;5012614;28;20520;-74
2023/12/29 02:47:34;;;;;;;1.90;0.80;;;4.60;99.90;;;;;;5049190;28;20514;-74
2023/12/29 02:50:01;;;;;;;2.37;0.70;;;4.60;99.90;;;;;;5005653;28;20526;-74
2023/12/29 02:52:28;;;;;;;0.90;0.77;;;4.70;99.90;;;;;;5001927;28;20479;-76
2023/12/29 02:54:55;;;;;;;1.70;0.70;;;4.80;99.90;;;;;;5003213;28;20542;-73
2023/12/29 02:57:23;;;;;;;1.23;0.83;;;4.90;99.90;;;;;;5003853;28;20473;-74
2023/12/29 02:59:50;;;;;;;1.00;0.70;;;4.90;99.90;;;;;;5001574;28;20896;-74
2023/12/29 03:02:17;;;;;;;1.17;0.70;;;5.00;99.90;;;;;;5006426;28;20460;-73
2023/12/29 03:04:44;;;;;;;0.70;0.70;;;5.10;99.90;;;;;;5020776;28;20456;-74
2023/12/29 03:07:11;;;;;;;1.67;0.80;;;5.10;99.90;;;;;;5002427;28;21150;-75
2023/12/29 03:09:38;;;;;;;0.90;0.60;;;5.10;99.90;;;;;;5002347;28;20529;-75
2023/12/29 03:12:06;;;;;;;1.13;0.80;;;5.10;99.90;;;;;;5002184;28;20538;-74
2023/12/29 03:14:34;;;;;;;1.27;0.60;;;5.10;99.90;;;;;;5002231;28;20909;-77
2023/12/29 03:17:01;;;;;;;0.80;0.60;;;5.10;99.90;;;;;;5002759;28;20540;-75
2023/12/29 03:19:28;;;;;;;0.93;0.83;;;5.00;99.90;;;;;;4994231;28;20956;-73
2023/12/29 03:21:55;;;;;;;0.70;0.40;;;4.90;99.90;;;;;;5002203;28;20454;-75
2023/12/29 03:24:22;;;;;;;1.67;0.80;;;4.90;99.90;;;;;;5003018;28;20504;-73
2023/12/29 03:26:49;;;;;;;5.33;0.60;;;4.80;99.90;;;;;;5002331;28;20552;-73
2023/12/29 03:29:16;;;;;;;2.37;0.83;;;4.70;99.90;;;;;;5014332;28;21005;-73
2023/12/29 03:31:44;;;;;;;2.10;0.97;;;4.50;99.90;;;;;;5002684;28;20455;-75
2023/12/29 03:34:11;;;;;;;0.97;0.87;;;4.30;99.90;;;;;;5004291;28;20511;-73
2023/12/29 03:36:38;;;;;;;1.10;1.00;;;4.10;99.90;;;;;;5001390;28;20454;-73
2023/12/29 03:39:05;;;;;;;1.20;0.67;;;4.00;99.90;;;;;;5007660;28;20450;-76
2023/12/29 03:41:32;;;;;;;1.00;0.90;;;3.90;99.90;;;;;;5001729;28;20521;-76
2023/12/29 03:43:59;;;;;;;1.80;1.23;;;3.90;99.90;;;;;;5001218;28;20451;-75
2023/12/29 03:46:27;;;;;;;0.83;0.70;;;3.90;99.90;;;;;;5001412;28;20563;-74
2023/12/29 03:48:55;;;;;;;1.70;0.93;;;3.80;99.90;;;;;;5004296;28;20475;-75
2023/12/29 03:51:22;;;;;;;4.20;1.00;;;3.70;99.90;;;;;;5010312;28;20466;-74
2023/12/29 03:53:49;;;;;;;2.70;1.00;;;3.80;99.90;;;;;;5001357;28;20591;-74
2023/12/29 03:56:18;;;;;;;0.90;0.77;;;3.90;99.90;;;;;;5003457;28;20519;-73
2023/12/29 03:58:45;;;;;;;0.63;0.60;;;3.90;99.90;;;;;;5001518;28;20508;-74
2023/12/29 04:01:12;;;;;;;0.60;0.53;;;4.00;99.90;;;;;;4995134;28;20471;-74
2023/12/29 04:03:39;;;;;;;0.90;0.70;;;4.10;99.90;;;;;;5005400;28;20492;-75
2023/12/29 04:06:08;;;;;;;0.70;0.50;;;4.10;99.90;;;;;;5011957;28;20577;-74
2023/12/29 04:08:35;;;;;;;1.77;1.20;;;4.10;99.90;;;;;;5025365;28;20553;-74
2023/12/29 04:11:02;;;;;;;1.03;0.73;;;4.00;99.90;;;;;;5005921;28;20833;-73
2023/12/29 04:13:29;;;;;;;2.40;0.90;;;3.90;99.90;;;;;;5007902;28;20963;-74
2023/12/29 04:15:56;;;;;;;0.97;0.80;;;4.00;99.90;;;;;;5004790;28;20528;-74
2023/12/29 04:18:24;;;;;;;1.43;0.80;;;3.90;99.90;;;;;;5004351;28;20901;-74
2023/12/29 04:20:51;;;;;;;1.40;0.77;;;3.90;99.90;;;;;;5013455;28;20541;-74
2023/12/29 04:23:20;;;;;;;1.50;1.10;;;4.00;99.90;;;;;;5015655;28;20453;-73
2023/12/29 04:25:47;;;;;;;0.97;0.80;;;4.00;99.90;;;;;;4999467;28;20491;-77
2023/12/29 04:28:14;;;;;;;1.17;0.90;;;4.00;99.90;;;;;;5001423;28;20479;-73
2023/12/29 04:30:40;;;;;;;1.43;1.23;;;3.90;99.90;;;;;;5006342;28;20451;-73
2023/12/29 04:33:07;;;;;;;0.80;0.73;;;3.90;99.90;;;;;;5005425;28;20439;-74
2023/12/29 04:35:34;;;;;;;1.20;0.80;;;3.90;99.90;;;;;;5032379;28;20546;-77
2023/12/29 04:38:01;;;;;;;0.80;0.57;;;4.00;99.90;;;;;;5003413;28;20521;-75
2023/12/29 04:40:30;;;;;;;0.60;0.53;;;3.90;99.90;;;;;;4996441;28;20452;-74
2023/12/29 04:42:57;;;;;;;1.90;0.50;;;4.00;99.90;;;;;;5004998;28;20444;-74
2023/12/29 04:45:24;;;;;;;0.90;0.60;;;4.00;99.90;;;;;;5005247;28;20843;-74
2023/12/29 04:47:50;;;;;;;0.50;0.50;;;4.10;99.90;;;;;;5021084;28;20447;-77
2023/12/29 04:50:17;;;;;;;1.10;0.60;;;4.20;99.90;;;;;;5041262;28;20464;-74
2023/12/29 04:52:44;;;;;;;1.93;0.80;;;4.10;99.90;;;;;;5016018;28;20861;-74
2023/12/29 04:55:12;;;;;;;1.03;0.97;;;4.10;99.90;;;;;;5062411;27;21254;-74
2023/12/29 04:57:41;;;;;;;0.83;0.80;;;3.90;99.90;;;;;;5060278;28;20453;-74
2023/12/29 05:00:09;;;;;;;1.10;0.90;;;3.80;99.90;;;;;;5015986;28;20459;-74
2023/12/29 05:02:36;;;;;;;3.30;1.43;;;3.80;99.90;;;;;;4998529;28;21069;-75
2023/12/29 05:05:03;;;;;;;1.53;1.20;;;3.80;99.90;;;;;;5024272;28;20474;-73
2023/12/29 05:07:30;;;;;;;1.20;0.80;;;3.70;99.90;;;;;;5004174;28;21070;-74
2023/12/29 05:09:57;;;;;;;0.80;0.80;;;3.70;99.90;;;;;;5000973;28;20539;-74
2023/12/29 05:12:24;;;;;;;3.23;1.17;;;3.60;99.90;;;;;;5003984;28;20439;-76
2023/12/29 05:14:52;;;;;;;2.10;1.00;;;3.60;99.90;;;;;;5004977;28;20457;-74
2023/12/29 05:17:19;;;;;;;1.23;1.10;;;3.70;99.90;;;;;;4989490;28;20636;-74
2023/12/29 05:19:46;;;;;;;1.27;0.83;;;3.60;99.90;;;;;;5003505;28;20502;-74
2023/12/29 05:22:17;;;;;;;1.20;0.80;;;3.70;99.90;;;;;;5004268;28;21186;-77
2023/12/29 05:24:45;;;;;;;2.73;0.70;;;3.70;99.90;;;;;;4994592;28;20472;-73
2023/12/29 05:27:12;;;;;;;1.43;0.90;;;3.70;99.90;;;;;;5003729;28;21002;-74
2023/12/29 05:29:39;;;;;;;1.03;0.80;;;3.70;99.90;;;;;;5024013;28;20451;-78
2023/12/29 05:32:08;;;;;;;1.57;0.80;;;3.70;99.90;;;;;;4998714;28;20555;-74
2023/12/29 05:34:35;;;;;;;2.07;0.90;;;3.70;99.90;;;;;;5003664;28;20453;-73
2023/12/29 05:37:02;;;;;;;1.80;0.90;;;3.80;99.90;;;;;;5014513;28;20450;-73
2023/12/29 05:39:30;;;;;;;0.60;0.60;;;3.80;99.90;;;;;;5009240;28;20464;-74
2023/12/29 05:41:57;;;;;;;1.27;0.80;;;3.90;99.90;;;;;;5003897;28;20863;-74
2023/12/29 05:44:24;;;;;;;2.97;0.60;;;4.00;99.90;;;;;;5003712;28;21242;-73
2023/12/29 05:46:51;;;;;;;0.80;0.60;;;4.20;99.90;;;;;;5003692;28;20490;-77
2023/12/29 05:49:19;;;;;;;0.80;0.80;;;4.30;99.90;;;;;;5002033;28;20474;-74
2023/12/29 05:51:46;;;;;;;0.80;0.60;;;4.40;99.90;;;;;;5008924;28;20938;-75
2023/12/29 05:54:13;;;;;;;1.00;0.50;;;4.50;99.90;;;;;;5003670;28;20463;-77
2023/12/29 05:56:40;;;;;;;1.10;0.47;;;4.50;99.90;;;;;;5003442;28;20560;-74
2023/12/29 05:59:07;;;;;;;1.10;0.50;;;4.50;99.90;;;;;;4998161;28;20463;-74
2023/12/29 06:01:34;;;;;;;0.50;0.40;;;4.50;99.90;;;;;;4998394;28;20930;-74
2023/12/29 06:04:02;;;;;;;1.23;0.73;;;4.60;99.90;;;;;;5020992;28;20443;-74
2023/12/29 06:06:30;;;;;;;0.63;0.57;;;4.60;99.90;;;;;;5007206;28;20563;-74
2023/12/29 06:08:57;;;;;;;0.60;0.50;;;4.40;99.90;;;;;;5031781;28;20470;-73
2023/12/29 06:11:24;;;;;;;0.60;0.40;;;4.40;99.90;;;;;;5004103;28;20450;-77
2023/12/29 06:13:51;;;;;;;0.63;0.50;;;4.30;99.90;;;;;;5000903;28;20465;-75
2023/12/29 06:16:19;;;;;;;0.70;0.70;;;4.30;99.90;;;;;;5021437;28;20500;-75
2023/12/29 06:18:46;;;;;;;1.13;0.80;;;4.20;99.90;;;;;;4998534;28;20466;-74
2023/12/29 06:21:13;;;;;;;1.33;0.60;;;4.20;99.90;;;;;;5003737;28;20537;-73
2023/12/29 06:23:42;;;;;;;0.87;0.60;;;4.20;99.90;;;;;;5000339;28;20462;-78
2023/12/29 06:26:17;;;;;;;1.47;0.63;;;4.10;99.90;;;;;;5015948;28;20493;-74
2023/12/29 06:28:45;;;;;;;0.87;0.60;;;4.00;99.90;;;;;;5002887;28;20458;-75
2023/12/29 06:31:12;;;;;;;1.17;0.90;;;4.00;99.90;;;;;;5001847;28;21204;-73
2023/12/29 06:33:41;;;;;;;0.67;0.47;;;4.00;99.90;;;;;;5002846;28;20524;-74
2023/12/29 06:36:09;;;;;;;0.70;0.53;;;4.20;99.90;;;;;;5003827;28;20470;-74
2023/12/29 06:38:36;;;;;;;0.50;0.50;;;4.20;99.90;;;;;;5019970;28;20830;-72
2023/12/29 06:41:05;;;;;;;0.80;0.50;;;4.20;99.90;;;;;;5024188;28;20925;-77
2023/12/29 06:43:33;;;;;;;0.60;0.53;;;4.30;99.90;;;;;;5071167;28;20439;-76
2023/12/29 06:46:02;;;;;;;1.13;0.60;;;4.10;99.90;;;;;;5016131;28;20540;-74
2023/12/29 06:48:29;;;;;;;1.53;0.70;;;4.10;99.90;;;;;;5006374;28;20457;-75
2023/12/29 06:50:56;;;;;;;0.80;0.80;;;4.10;99.90;;;;;;5004810;28;20986;-74
2023/12/29 06:53:23;;;;;;;1.27;1.10;;;4.10;99.90;;;;;;5038051;28;20443;-74
2023/12/29 06:55:50;;;;;;;2.00;1.20;;;4.10;99.90;;;;;;5009750;28;20472;-77
2023/12/29 06:58:18;;;;;;;1.33;1.13;;;4.10;99.90;;;;;;5023711;28;20442;-74
2023/12/29 07:00:45;;;;;;;1.43;0.90;;;4.10;99.90;;;;;;5003009;28;20549;-74
2023/12/29 07:03:17;;;;;;;1.20;0.90;;;4.10;99.90;;;;;;4999528;28;20536;-79
2023/12/29 07:05:44;;;;;;;0.70;0.70;;;4.20;99.90;;;;;;5017749;28;20457;-77
2023/12/29 07:08:17;;;;;;;2.60;1.33;;;4.20;99.90;;;;;;4999249;28;20487;-78
2023/12/29 07:10:44;;;;;;;1.17;0.80;;;4.30;99.90;;;;;;5000024;28;20470;-76
2023/12/29 07:13:11;;;;;;;1.37;1.17;;;4.30;99.90;;;;;;4999293;28;20515;-79
2023/12/29 07:15:39;;;;;;;1.63;0.80;;;4.40;99.90;;;;;;5010322;28;20501;-77
2023/12/29 07:18:06;;;;;;;1.80;0.90;;;4.50;99.90;;;;;;5009669;28;20467;-75
2023/12/29 07:20:33;;;;;;;1.97;0.97;;;4.40;99.90;;;;;;5023745;28;20939;-75
2023/12/29 07:23:01;;;;;;;1.67;1.27;;;4.20;99.90;;;;;;5002588;28;20463;-75
2023/12/29 07:25:29;;;;;;;1.93;1.73;;;4.20;99.90;;;;;;5008851;28;20475;-74
2023/12/29 07:27:56;;;;;;;0.87;0.67;;;4.20;99.90;;;;;;5051714;28;20829;-73
2023/12/29 07:30:23;;;;;;;1.37;0.90;;;4.20;99.90;;;;;;5026188;28;20479;-73
2023/12/29 07:32:52;;;;;;;3.63;0.90;;;4.40;99.90;;;;;;5016049;28;20459;-72
2023/12/29 07:35:19;;;;;;;1.40;0.77;;;4.50;99.90;;;;;;5003484;28;20489;-72
2023/12/29 07:37:47;;;;;;;1.77;1.10;;;4.50;99.90;;;;;;5012513;28;20466;-73
2023/12/29 07:40:14;;;;;;;1.03;0.93;;;4.60;99.90;;;;;;4996737;28;20458;-73
2023/12/29 07:42:43;;;;;;;1.57;0.90;;;4.70;99.90;;;;;;5011696;28;20462;-75
2023/12/29 07:45:10;;;;;;;1.87;0.97;;;4.80;99.90;;;;;;5011246;28;20973;-74
2023/12/29 07:47:37;;;;;;;1.97;1.30;;;5.00;99.90;;;;;;5016177;28;20482;-72
2023/12/29 07:50:06;;;;;;;1.23;1.13;;;5.10;99.90;;;;;;5009804;28;20955;-73
2023/12/29 07:52:33;;;;;;;1.33;0.70;;;5.10;99.90;;;;;;5014653;28;20505;-73
2023/12/29 07:55:00;;;;;;;1.83;1.00;;;5.20;99.90;;;;;;5012087;28;20468;-72
2023/12/29 07:57:27;;;;;;;1.27;0.60;;;5.20;99.90;;;;;;5002407;28;20480;-72
2023/12/29 07:59:54;;;;;;;0.60;0.50;;;5.50;99.90;;;;;;5005992;28;20516;-75
2023/12/29 08:02:21;;;;;;;0.60;0.50;;;6.00;99.90;;;;;;5006892;28;20531;-75
2023/12/29 08:04:48;;;;;;;0.60;0.50;;;6.50;99.90;;;;;;5016672;28;20512;-73
2023/12/29 08:07:16;;;;;;;0.70;0.70;;;7.00;99.90;;;;;;5052649;28;20528;-75
2023/12/29 08:09:42;;;;;;;0.60;0.60;;;7.20;99.90;;;;;;5007116;28;20512;-73
2023/12/29 08:12:09;;;;;;;0.63;0.50;;;7.40;99.90;;;;;;5039103;28;20458;-73
2023/12/29 08:14:36;;;;;;;1.17;0.60;;;7.40;99.90;;;;;;5025759;28;20520;-76
2023/12/29 08:17:04;;;;;;;1.17;0.60;;;7.40;99.90;;;;;;5043809;28;20493;-75
2023/12/29 08:19:30;;;;;;;1.80;0.73;;;7.30;99.90;;;;;;5032895;28;20875;-76
2023/12/29 08:21:57;;;;;;;0.87;0.80;;;7.10;99.90;;;;;;5004176;28;20489;-74
2023/12/29 08:24:26;;;;;;;1.33;0.90;;;7.00;99.90;;;;;;5003200;28;20533;-75
2023/12/29 08:26:53;;;;;;;1.43;0.80;;;6.90;99.90;;;;;;5002800;28;20626;-75
2023/12/29 08:29:20;;;;;;;2.30;1.20;;;6.80;99.90;;;;;;5052689;28;20458;-74
2023/12/29 08:31:47;;;;;;;1.97;1.00;;;6.90;99.90;;;;;;5040577;28;20550;-75
2023/12/29 08:34:15;;;;;;;2.07;1.80;;;6.90;99.90;;;;;;5015356;28;20924;-74
2023/12/29 08:36:42;;;;;;;2.07;1.97;;;7.00;99.90;;;;;;5024444;28;20508;-73
2023/12/29 08:39:09;;;;;;;3.23;1.20;;;7.20;99.90;;;;;;5028434;28;20491;-72
2023/12/29 08:41:37;;;;;;;1.13;1.03;;;7.30;99.90;;;;;;5038608;28;20561;-73
2023/12/29 08:44:04;;;;;;;1.43;1.33;;;7.30;99.90;;;;;;5004356;28;20494;-72
2023/12/29 08:46:31;;;;;;;2.07;1.20;;;7.30;99.90;;;;;;5029666;28;20462;-75
2023/12/29 08:48:58;;;;;;;1.83;0.90;;;7.20;99.90;;;;;;5009501;28;20465;-73
2023/12/29 08:51:25;;;;;;;1.80;1.43;;;7.10;99.90;;;;;;5020403;28;20543;-73
2023/12/29 08:53:52;;;;;;;1.43;1.10;;;7.20;99.90;;;;;;5009373;28;20504;-73
2023/12/29 08:56:19;;;;;;;2.00;1.37;;;7.40;99.90;;;;;;5005665;28;20496;-74
2023/12/29 08:58:47;;;;;;;7.60;2.10;;;7.40;99.90;;;;;;5012401;28;20498;-73
2023/12/29 09:01:14;;;;;;;1.67;1.43;;;7.40;99.90;;;;;;5010160;28;21177;-75
2023/12/29 09:03:42;;;;;;;1.60;1.13;;;7.50;99.90;;;;;;5023497;28;20559;-73
2023/12/29 09:06:09;;;;;;;1.20;1.10;;;7.60;99.90;;;;;;5016289;28;20469;-74
2023/12/29 09:08:36;;;;;;;1.30;1.10;;;7.60;99.90;;;;;;5020883;28;20498;-72
2023/12/29 09:11:04;;;;;;;1.50;1.40;;;7.70;99.90;;;;;;5014831;28;20461;-73
2023/12/29 09:13:31;;;;;;;2.10;1.27;;;7.70;99.90;;;;;;5003596;28;20467;-74
2023/12/29 09:16:00;;;;;;;2.03;1.40;;;7.70;99.90;;;;;;5018599;28;20489;-73
2023/12/29 09:18:27;;;;;;;1.27;1.13;;;7.80;99.90;;;;;;5010115;28;21284;-73
2023/12/29 09:20:54;;;;;;;2.50;2.20;;;7.80;99.90;;;;;;5026965;28;20568;-74
2023/12/29 09:23:21;;;;;;;2.80;1.40;;;7.90;99.90;;;;;;5000106;28;20536;-73
2023/12/29 09:25:48;;;;;;;4.27;1.07;;;7.90;99.90;;;;;;5006185;28;20870;-72
2023/12/29 09:28:15;;;;;;;2.90;2.00;;;7.90;99.90;;;;;;5017612;28;20882;-73
2023/12/29 09:30:42;;;;;;;1.73;1.37;;;7.90;99.90;;;;;;5001603;28;20469;-73
2023/12/29 09:33:12;;;;;;;2.20;1.80;;;7.70;99.90;;;;;;5009875;28;20466;-72
2023/12/29 09:35:39;;;;;;;2.37;1.40;;;7.80;99.90;;;;;;5024643;28;20466;-73
2023/12/29 09:38:06;;;;;;;2.80;2.23;;;7.80;99.90;;;;;;5009330;28;21238;-73
2023/12/29 09:40:33;;;;;;;4.53;3.73;;;7.90;99.90;;;;;;5004006;28;20874;-73
2023/12/29 09:43:03;;;;;;;5.00;4.60;;;7.80;99.90;;;;;;5014789;28;20639;-70
2023/12/29 09:45:31;;;;;;;4.10;3.80;;;7.70;99.90;;;;;;4998638;28;20496;-72
2023/12/29 09:47:59;;;;;;;5.67;3.47;;;7.80;99.90;;;;;;5019115;28;21246;-72
2023/12/29 09:50:28;;;;;;;5.27;4.40;;;7.80;99.90;;;;;;5072518;28;20475;-74
2023/12/29 09:52:56;;;;;;;5.30;4.73;;;7.80;99.90;;;;;;5032106;28;20505;-72
2023/12/29 09:55:24;;;;;;;3.47;3.17;;;7.70;99.90;;;;;;5048572;28;20468;-72
2023/12/29 09:57:51;;;;;;;4.87;3.73;;;7.60;99.90;;;;;;5030798;28;21016;-74
2023/12/29 10:00:21;;;;;;;7.70;5.20;;;7.70;99.90;;;;;;5057331;28;20516;-73
2023/12/29 10:02:52;;;;;;;5.17;3.30;;;7.90;99.90;;;;;;5004252;28;20450;-72
2023/12/29 10:05:19;;;;;;;4.97;3.33;;;7.90;99.90;;;;;;5018596;28;20505;-71
2023/12/29 10:07:48;;;;;;;6.90;6.33;;;8.00;99.90;;;;;;5014855;28;20512;-71
2023/12/29 10:10:17;;;;;;;7.50;4.97;;;8.10;99.90;;;;;;5007997;28;20472;-72
2023/12/29 10:12:45;;;;;;;9.77;8.90;;;8.30;99.90;;;;;;5008722;28;20463;-74
2023/12/29 10:15:18;;;;;;;5.07;4.60;;;8.50;99.90;;;;;;5015736;28;20545;-73
2023/12/29 10:17:53;;;;;;;3.30;2.93;;;8.50;99.90;;;;;;5004020;28;20459;-74
2023/12/29 10:20:32;;;;;;;5.33;4.80;;;8.40;99.90;;;;;;5001256;28;20462;-73
2023/12/29 10:23:08;;;;;;;3.83;3.53;;;8.40;99.90;;;;;;5006906;28;20462;-73
2023/12/29 10:25:36;;;;;;;3.93;3.63;;;8.50;99.90;;;;;;5013859;28;20468;-72
2023/12/29 10:28:03;;;;;;;7.70;5.60;;;8.60;99.90;;;;;;5015619;28;20863;-72
2023/12/29 10:30:31;;;;;;;4.53;3.83;;;8.40;99.90;;;;;;5003453;28;20544;-71
2023/12/29 10:33:00;;;;;;;3.53;3.23;;;8.20;99.90;;;;;;4999734;28;20558;-72
2023/12/29 10:35:27;;;;;;;4.73;3.40;;;8.10;99.90;;;;;;5002565;28;20452;-71
2023/12/29 10:37:54;;;;;;;4.10;3.43;;;8.00;99.90;;;;;;5014068;28;20531;-72
2023/12/29 10:40:22;;;;;;;2.73;2.50;;;8.00;99.90;;;;;;5007376;28;20513;-72
2023/12/29 10:42:57;;;;;;;2.30;2.10;;;8.00;99.90;;;;;;5000688;28;20467;-72
2023/12/29 10:45:25;;;;;;;3.53;3.23;;;8.10;99.90;;;;;;5010365;28;21159;-73
2023/12/29 10:47:52;;;;;;;4.40;2.20;;;8.00;99.90;;;;;;5012774;28;20925;-72
2023/12/29 10:50:19;;;;;;;2.13;2.03;;;8.00;99.90;;;;;;5003190;28;20492;-74
2023/12/29 10:52:46;;;;;;;1.37;1.23;;;8.10;99.90;;;;;;5011713;28;20826;-72
2023/12/29 10:55:14;;;;;;;2.10;1.53;;;8.20;99.90;;;;;;5026471;28;20457;-72
2023/12/29 10:57:42;;;;;;;2.50;2.07;;;8.20;99.90;;;;;;5048944;28;20457;-74
2023/12/29 11:00:12;;;;;;;1.67;1.27;;;8.30;99.90;;;;;;5011997;28;20818;-75
2023/12/29 11:02:39;;;;;;;2.77;0.73;;;8.40;99.90;;;;;;5002754;28;20458;-72
2023/12/29 11:05:08;;;;;;;1.20;0.80;;;8.40;99.90;;;;;;5019965;28;20565;-76
2023/12/29 11:07:36;;;;;;;7.70;4.03;;;8.40;99.90;;;;;;5011097;28;20582;-72
2023/12/29 11:10:05;;;;;;;2.30;2.10;;;8.30;99.90;;;;;;5000369;28;20471;-72
2023/12/29 11:12:37;;;;;;;3.60;1.83;;;8.30;99.90;;;;;;4993925;28;21123;-72
2023/12/29 11:15:08;;;;;;;1.73;1.27;;;8.30;99.90;;;;;;4998031;28;20470;-74
2023/12/29 11:17:36;;;;;;;1.30;1.20;;;8.30;99.90;;;;;;4994783;28;20478;-74
2023/12/29 11:20:04;;;;;;;1.70;1.07;;;8.40;99.90;;;;;;5002237;28;20499;-75
2023/12/29 11:22:33;;;;;;;2.33;1.87;;;8.50;99.90;;;;;;5007588;28;20454;-73
2023/12/29 11:25:00;;;;;;;2.80;2.60;;;8.60;99.90;;;;;;5021362;28;20479;-73
2023/12/29 11:27:30;;;;;;;3.03;2.73;;;8.70;99.90;;;;;;5004210;28;20503;-72
2023/12/29 11:29:58;;;;;;;1.53;1.00;;;8.70;99.90;;;;;;4996359;28;20562;-72
2023/12/29 11:32:40;;;;;;;0.70;0.70;;;8.70;99.90;;;;;;5002039;28;20460;-75
2023/12/29 11:35:24;;;;;;;1.67;1.13;;;8.80;99.90;;;;;;5012260;28;20935;-73
2023/12/29 11:38:13;;;;;;;2.83;1.40;;;8.80;99.90;;;;;;5016024;28;20527;-74
2023/12/29 11:40:46;;;;;;;2.30;1.47;;;8.70;99.90;;;;;;5003931;28;20494;-73
2023/12/29 11:43:17;;;;;;;1.53;1.20;;;8.80;99.90;;;;;;5000477;28;20563;-72
2023/12/29 11:45:44;;;;;;;1.40;1.30;;;8.60;99.90;;;;;;5016218;28;20457;-73
2023/12/29 11:48:34;;;;;;;3.30;1.57;;;8.60;99.90;;;;;;5005919;28;20514;-73
2023/12/29 11:51:01;;;;;;;1.60;1.50;;;8.50;99.90;;;;;;5011639;28;20453;-77
2023/12/29 11:53:33;;;;;;;4.30;1.80;;;8.40;99.90;;;;;;5030114;28;20830;-75
2023/12/29 11:56:00;;;;;;;4.03;2.00;;;8.20;99.90;;;;;;5004594;28;20550;-73
2023/12/29 11:58:28;;;;;;;4.37;1.73;;;8.20;99.90;;;;;;4997161;28;20473;-73
2023/12/29 12:00:56;;;;;;;2.10;1.70;;;8.20;99.90;;;;;;5011799;28;20451;-73
2023/12/29 12:03:27;;;;;;;2.53;1.43;;;8.10;99.90;;;;;;5016747;28;20526;-73
2023/12/29 12:05:58;;;;;;;2.30;2.10;;;8.20;99.90;;;;;;5004100;28;20531;-73
2023/12/29 12:08:29;;;;;;;1.97;1.87;;;8.20;99.90;;;;;;5001510;28;20858;-73
2023/12/29 12:10:57;;;;;;;2.63;1.60;;;8.20;99.90;;;;;;5010465;28;20515;-73
2023/12/29 12:13:45;;;;;;;3.00;2.50;;;8.20;99.90;;;;;;5004197;28;20490;-76
2023/12/29 12:16:50;;;;;;;9.10;3.70;;;8.30;99.90;;;;;;5010290;28;20520;-72
2023/12/29 12:19:20;;;;;;;5.60;5.07;;;8.30;99.90;;;;;;5021855;28;20558;-73
2023/12/29 12:21:49;;;;;;;4.57;1.77;;;8.30;99.90;;;;;;5007303;28;20463;-73
2023/12/29 12:24:19;;;;;;;1.90;1.77;;;8.40;99.90;;;;;;5025504;28;20486;-72
2023/12/29 12:26:46;;;;;;;2.87;2.13;;;8.60;99.90;;;;;;5005935;28;20469;-72
2023/12/29 12:29:15;;;;;;;2.53;2.33;;;8.70;99.90;;;;;;5022928;28;20494;-75
2023/12/29 12:31:53;;;;;;;2.20;1.93;;;8.70;99.90;;;;;;5038964;28;20551;-74
2023/12/29 12:34:22;;;;;;;2.07;1.67;;;8.70;99.90;;;;;;5078858;28;20530;-73
2023/12/29 12:36:50;;;;;;;3.40;1.70;;;8.80;99.90;;;;;;5019820;28;20483;-75
2023/12/29 12:39:17;;;;;;;3.17;1.80;;;8.90;99.90;;;;;;4996269;28;20941;-76
2023/12/29 12:41:45;;;;;;;1.63;1.43;;;8.90;99.90;;;;;;5010660;28;20491;-73
2023/12/29 12:44:13;;;;;;;2.00;1.40;;;9.00;99.90;;;;;;5060062;28;20469;-73
2023/12/29 12:46:45;;;;;;;1.80;1.50;;;9.10;99.90;;;;;;5013364;28;20477;-73
2023/12/29 12:49:12;;;;;;;2.60;1.83;;;9.20;99.90;;;;;;5018014;28;20574;-74
2023/12/29 12:51:45;;;;;;;1.50;1.40;;;9.20;99.90;;;;;;5018775;28;20478;-75
2023/12/29 12:54:13;;;;;;;3.17;1.63;;;9.30;99.90;;;;;;5002497;28;20476;-73
2023/12/29 12:56:42;;;;;;;2.93;1.37;;;9.20;99.90;;;;;;5030164;28;20467;-73
2023/12/29 12:59:10;;;;;;;2.73;1.53;;;9.30;99.90;;;;;;5039078;28;20891;-73
2023/12/29 13:01:38;;;;;;;3.57;2.73;;;9.30;99.90;;;;;;5008677;28;20458;-73
2023/12/29 13:04:06;;;;;;;2.43;1.93;;;9.30;99.90;;;;;;5007120;28;20521;-74